sensor_id;sensor_type;location;lat;lon;timestamp;P1;durP1;ratioP1;P2;durP2;ratioP2
24897;SDS011;12957;49.434;8.684;2023-11-19T00:00:06;11.07;;;4.32;;
24897;SDS011;12957;49.434;8.684;2023-11-19T00:02:37;5.55;;;3.92;;
24897;SDS011;12957;49.434;8.684;2023-11-19T00:05:05;11.10;;;5.05;;
24897;SDS011;12957;49.434;8.684;2023-11-19T00:07:37;5.50;;;4.28;;
24897;SDS011;12957;49.434;8.684;2023-11-19T00:10:13;4.80;;;4.05;;
24897;SDS011;12957;49.434;8.684;2023-11-19T00:12:44;5.57;;;3.90;;
24897;SDS011;12957;49.434;8.684;2023-11-19T00:15:10;6.10;;;3.88;;
24897;SDS011;12957;49.434;8.684;2023-11-19T00:17:42;6.78;;;3.83;;
24897;SDS011;12957;49.434;8.684;2023-11-19T00:20:11;6.43;;;4.18;;
24897;SDS011;12957;49.434;8.684;2023-11-19T00:22:37;4.78;;;4.00;;
24897;SDS011;12957;49.434;8.684;2023-11-19T00:25:02;4.35;;;3.80;;
24897;SDS011;12957;49.434;8.684;2023-11-19T00:27:28;4.10;;;3.50;;
24897;SDS011;12957;49.434;8.684;2023-11-19T00:29:54;6.47;;;3.92;;
24897;SDS011;12957;49.434;8.684;2023-11-19T00:32:19;4.25;;;3.78;;
24897;SDS011;12957;49.434;8.684;2023-11-19T00:34:45;3.22;;;3.03;;
24897;SDS011;12957;49.434;8.684;2023-11-19T00:37:13;4.85;;;2.90;;
24897;SDS011;12957;49.434;8.684;2023-11-19T00:39:38;4.15;;;2.65;;
24897;SDS011;12957;49.434;8.684;2023-11-19T00:42:04;4.93;;;3.30;;
24897;SDS011;12957;49.434;8.684;2023-11-19T00:44:30;5.88;;;2.65;;
24897;SDS011;12957;49.434;8.684;2023-11-19T00:46:55;3.05;;;2.50;;
24897;SDS011;12957;49.434;8.684;2023-11-19T00:49:21;2.58;;;2.35;;
24897;SDS011;12957;49.434;8.684;2023-11-19T00:51:46;2.53;;;2.33;;
24897;SDS011;12957;49.434;8.684;2023-11-19T00:54:12;3.13;;;2.35;;
24897;SDS011;12957;49.434;8.684;2023-11-19T00:56:37;2.53;;;2.28;;
24897;SDS011;12957;49.434;8.684;2023-11-19T00:59:03;2.10;;;1.90;;
24897;SDS011;12957;49.434;8.684;2023-11-19T01:01:29;2.20;;;1.65;;
24897;SDS011;12957;49.434;8.684;2023-11-19T01:03:54;4.63;;;1.70;;
24897;SDS011;12957;49.434;8.684;2023-11-19T01:06:28;3.80;;;1.83;;
24897;SDS011;12957;49.434;8.684;2023-11-19T01:08:55;1.70;;;1.60;;
24897;SDS011;12957;49.434;8.684;2023-11-19T01:11:22;6.07;;;1.45;;
24897;SDS011;12957;49.434;8.684;2023-11-19T01:13:47;1.58;;;1.48;;
24897;SDS011;12957;49.434;8.684;2023-11-19T01:16:13;1.77;;;1.55;;
24897;SDS011;12957;49.434;8.684;2023-11-19T01:18:39;2.58;;;1.70;;
24897;SDS011;12957;49.434;8.684;2023-11-19T01:21:04;3.60;;;1.50;;
24897;SDS011;12957;49.434;8.684;2023-11-19T01:23:30;3.47;;;1.63;;
24897;SDS011;12957;49.434;8.684;2023-11-19T01:25:56;1.65;;;1.55;;
24897;SDS011;12957;49.434;8.684;2023-11-19T01:28:21;1.85;;;1.50;;
24897;SDS011;12957;49.434;8.684;2023-11-19T01:30:46;1.50;;;1.50;;
24897;SDS011;12957;49.434;8.684;2023-11-19T01:33:12;3.28;;;1.40;;
24897;SDS011;12957;49.434;8.684;2023-11-19T01:35:37;1.50;;;1.40;;
24897;SDS011;12957;49.434;8.684;2023-11-19T01:38:03;1.60;;;1.45;;
24897;SDS011;12957;49.434;8.684;2023-11-19T01:40:28;1.38;;;1.27;;
24897;SDS011;12957;49.434;8.684;2023-11-19T01:42:54;2.20;;;1.30;;
24897;SDS011;12957;49.434;8.684;2023-11-19T01:45:27;1.40;;;1.30;;
24897;SDS011;12957;49.434;8.684;2023-11-19T01:47:59;3.17;;;1.50;;
24897;SDS011;12957;49.434;8.684;2023-11-19T01:50:25;1.48;;;1.30;;
24897;SDS011;12957;49.434;8.684;2023-11-19T01:52:52;1.50;;;1.40;;
24897;SDS011;12957;49.434;8.684;2023-11-19T01:55:18;1.50;;;1.50;;
24897;SDS011;12957;49.434;8.684;2023-11-19T01:57:44;3.38;;;1.70;;
24897;SDS011;12957;49.434;8.684;2023-11-19T02:00:11;1.55;;;1.40;;
24897;SDS011;12957;49.434;8.684;2023-11-19T02:02:37;1.38;;;1.38;;
24897;SDS011;12957;49.434;8.684;2023-11-19T02:05:05;2.03;;;1.60;;
24897;SDS011;12957;49.434;8.684;2023-11-19T02:07:31;1.80;;;1.70;;
24897;SDS011;12957;49.434;8.684;2023-11-19T02:09:57;1.67;;;1.50;;
24897;SDS011;12957;49.434;8.684;2023-11-19T02:12:25;1.70;;;1.60;;
24897;SDS011;12957;49.434;8.684;2023-11-19T02:14:53;1.75;;;1.65;;
24897;SDS011;12957;49.434;8.684;2023-11-19T02:17:29;2.25;;;1.90;;
24897;SDS011;12957;49.434;8.684;2023-11-19T02:19:56;2.33;;;2.10;;
24897;SDS011;12957;49.434;8.684;2023-11-19T02:22:22;5.20;;;1.88;;
24897;SDS011;12957;49.434;8.684;2023-11-19T02:24:48;2.30;;;2.10;;
24897;SDS011;12957;49.434;8.684;2023-11-19T02:27:16;2.20;;;2.00;;
24897;SDS011;12957;49.434;8.684;2023-11-19T02:29:51;4.47;;;2.15;;
24897;SDS011;12957;49.434;8.684;2023-11-19T02:32:16;2.22;;;2.13;;
24897;SDS011;12957;49.434;8.684;2023-11-19T02:34:42;3.30;;;2.38;;
24897;SDS011;12957;49.434;8.684;2023-11-19T02:37:07;2.80;;;2.60;;
24897;SDS011;12957;49.434;8.684;2023-11-19T02:39:33;4.75;;;2.55;;
24897;SDS011;12957;49.434;8.684;2023-11-19T02:41:58;3.17;;;2.90;;
24897;SDS011;12957;49.434;8.684;2023-11-19T02:44:25;4.80;;;2.80;;
24897;SDS011;12957;49.434;8.684;2023-11-19T02:46:53;3.72;;;3.22;;
24897;SDS011;12957;49.434;8.684;2023-11-19T02:49:18;3.42;;;3.13;;
24897;SDS011;12957;49.434;8.684;2023-11-19T02:51:44;4.38;;;2.80;;
24897;SDS011;12957;49.434;8.684;2023-11-19T02:54:09;3.08;;;2.88;;
24897;SDS011;12957;49.434;8.684;2023-11-19T02:56:35;4.20;;;3.08;;
24897;SDS011;12957;49.434;8.684;2023-11-19T02:59:02;3.20;;;2.90;;
24897;SDS011;12957;49.434;8.684;2023-11-19T03:01:39;3.40;;;2.55;;
24897;SDS011;12957;49.434;8.684;2023-11-19T03:04:08;2.75;;;2.55;;
24897;SDS011;12957;49.434;8.684;2023-11-19T03:06:37;3.70;;;2.90;;
24897;SDS011;12957;49.434;8.684;2023-11-19T03:09:02;2.90;;;2.70;;
24897;SDS011;12957;49.434;8.684;2023-11-19T03:11:32;4.63;;;2.60;;
24897;SDS011;12957;49.434;8.684;2023-11-19T03:13:58;3.05;;;2.40;;
24897;SDS011;12957;49.434;8.684;2023-11-19T03:16:24;3.65;;;2.55;;
24897;SDS011;12957;49.434;8.684;2023-11-19T03:18:49;2.65;;;2.50;;
24897;SDS011;12957;49.434;8.684;2023-11-19T03:21:15;4.45;;;2.35;;
24897;SDS011;12957;49.434;8.684;2023-11-19T03:23:40;3.00;;;2.70;;
24897;SDS011;12957;49.434;8.684;2023-11-19T03:26:06;2.90;;;2.50;;
24897;SDS011;12957;49.434;8.684;2023-11-19T03:28:31;2.72;;;2.47;;
24897;SDS011;12957;49.434;8.684;2023-11-19T03:30:57;3.10;;;2.80;;
24897;SDS011;12957;49.434;8.684;2023-11-19T03:33:23;3.70;;;3.33;;
24897;SDS011;12957;49.434;8.684;2023-11-19T03:35:50;3.00;;;2.78;;
24897;SDS011;12957;49.434;8.684;2023-11-19T03:38:17;3.35;;;2.78;;
24897;SDS011;12957;49.434;8.684;2023-11-19T03:40:42;3.85;;;3.55;;
24897;SDS011;12957;49.434;8.684;2023-11-19T03:43:08;3.08;;;2.80;;
24897;SDS011;12957;49.434;8.684;2023-11-19T03:45:34;4.35;;;3.00;;
24897;SDS011;12957;49.434;8.684;2023-11-19T03:48:01;3.58;;;3.22;;
24897;SDS011;12957;49.434;8.684;2023-11-19T03:50:26;3.47;;;3.15;;
24897;SDS011;12957;49.434;8.684;2023-11-19T03:52:52;3.85;;;3.22;;
24897;SDS011;12957;49.434;8.684;2023-11-19T03:55:17;3.72;;;2.95;;
24897;SDS011;12957;49.434;8.684;2023-11-19T03:57:43;3.63;;;2.92;;
24897;SDS011;12957;49.434;8.684;2023-11-19T04:00:08;3.40;;;3.10;;
24897;SDS011;12957;49.434;8.684;2023-11-19T04:02:35;3.30;;;3.05;;
24897;SDS011;12957;49.434;8.684;2023-11-19T04:05:01;4.95;;;3.58;;
24897;SDS011;12957;49.434;8.684;2023-11-19T04:07:28;3.28;;;2.95;;
24897;SDS011;12957;49.434;8.684;2023-11-19T04:09:53;5.35;;;3.70;;
24897;SDS011;12957;49.434;8.684;2023-11-19T04:12:19;5.57;;;3.20;;
24897;SDS011;12957;49.434;8.684;2023-11-19T04:14:44;5.95;;;3.58;;
24897;SDS011;12957;49.434;8.684;2023-11-19T04:17:10;5.45;;;4.07;;
24897;SDS011;12957;49.434;8.684;2023-11-19T04:19:35;3.65;;;3.35;;
24897;SDS011;12957;49.434;8.684;2023-11-19T04:22:01;4.07;;;3.50;;
24897;SDS011;12957;49.434;8.684;2023-11-19T04:24:27;4.43;;;3.70;;
24897;SDS011;12957;49.434;8.684;2023-11-19T04:26:53;3.53;;;3.22;;
24897;SDS011;12957;49.434;8.684;2023-11-19T04:29:18;4.55;;;3.50;;
24897;SDS011;12957;49.434;8.684;2023-11-19T04:31:44;4.15;;;3.50;;
24897;SDS011;12957;49.434;8.684;2023-11-19T04:34:10;2.88;;;2.70;;
24897;SDS011;12957;49.434;8.684;2023-11-19T04:36:36;4.63;;;3.10;;
24897;SDS011;12957;49.434;8.684;2023-11-19T04:39:03;4.03;;;3.30;;
24897;SDS011;12957;49.434;8.684;2023-11-19T04:41:34;3.90;;;3.50;;
24897;SDS011;12957;49.434;8.684;2023-11-19T04:43:59;6.93;;;3.50;;
24897;SDS011;12957;49.434;8.684;2023-11-19T04:46:25;4.05;;;3.20;;
24897;SDS011;12957;49.434;8.684;2023-11-19T04:48:50;3.85;;;3.35;;
24897;SDS011;12957;49.434;8.684;2023-11-19T04:51:16;3.80;;;3.22;;
24897;SDS011;12957;49.434;8.684;2023-11-19T04:53:42;5.85;;;3.55;;
24897;SDS011;12957;49.434;8.684;2023-11-19T04:56:10;4.35;;;3.95;;
24897;SDS011;12957;49.434;8.684;2023-11-19T04:58:36;6.50;;;3.70;;
24897;SDS011;12957;49.434;8.684;2023-11-19T05:01:02;4.05;;;3.75;;
24897;SDS011;12957;49.434;8.684;2023-11-19T05:03:28;3.65;;;3.35;;
24897;SDS011;12957;49.434;8.684;2023-11-19T05:05:54;4.28;;;3.80;;
24897;SDS011;12957;49.434;8.684;2023-11-19T05:08:19;4.10;;;3.70;;
24897;SDS011;12957;49.434;8.684;2023-11-19T05:10:45;5.57;;;3.58;;
24897;SDS011;12957;49.434;8.684;2023-11-19T05:13:10;7.60;;;4.00;;
24897;SDS011;12957;49.434;8.684;2023-11-19T05:15:37;5.18;;;3.88;;
24897;SDS011;12957;49.434;8.684;2023-11-19T05:18:03;3.90;;;3.50;;
24897;SDS011;12957;49.434;8.684;2023-11-19T05:20:29;5.13;;;3.80;;
24897;SDS011;12957;49.434;8.684;2023-11-19T05:22:55;4.05;;;3.67;;
24897;SDS011;12957;49.434;8.684;2023-11-19T05:25:20;4.43;;;3.70;;
24897;SDS011;12957;49.434;8.684;2023-11-19T05:27:46;6.05;;;3.78;;
24897;SDS011;12957;49.434;8.684;2023-11-19T05:30:11;5.18;;;3.65;;
24897;SDS011;12957;49.434;8.684;2023-11-19T05:32:37;5.57;;;4.18;;
24897;SDS011;12957;49.434;8.684;2023-11-19T05:35:02;4.20;;;3.80;;
24897;SDS011;12957;49.434;8.684;2023-11-19T05:37:28;4.40;;;3.65;;
24897;SDS011;12957;49.434;8.684;2023-11-19T05:39:54;10.95;;;4.43;;
24897;SDS011;12957;49.434;8.684;2023-11-19T05:42:19;6.15;;;4.45;;
24897;SDS011;12957;49.434;8.684;2023-11-19T05:44:45;5.20;;;3.88;;
24897;SDS011;12957;49.434;8.684;2023-11-19T05:47:11;6.43;;;4.20;;
24897;SDS011;12957;49.434;8.684;2023-11-19T05:49:36;5.45;;;4.30;;
24897;SDS011;12957;49.434;8.684;2023-11-19T05:52:02;5.90;;;4.30;;
24897;SDS011;12957;49.434;8.684;2023-11-19T05:54:28;7.03;;;4.90;;
24897;SDS011;12957;49.434;8.684;2023-11-19T05:56:54;5.50;;;4.50;;
24897;SDS011;12957;49.434;8.684;2023-11-19T05:59:19;6.15;;;4.70;;
24897;SDS011;12957;49.434;8.684;2023-11-19T06:01:45;4.88;;;4.32;;
24897;SDS011;12957;49.434;8.684;2023-11-19T06:04:11;4.63;;;4.15;;
24897;SDS011;12957;49.434;8.684;2023-11-19T06:06:37;5.57;;;4.10;;
24897;SDS011;12957;49.434;8.684;2023-11-19T06:09:03;6.50;;;4.53;;
24897;SDS011;12957;49.434;8.684;2023-11-19T06:11:28;4.70;;;4.15;;
24897;SDS011;12957;49.434;8.684;2023-11-19T06:13:54;7.20;;;4.28;;
24897;SDS011;12957;49.434;8.684;2023-11-19T06:16:20;5.35;;;3.75;;
24897;SDS011;12957;49.434;8.684;2023-11-19T06:18:45;7.57;;;4.20;;
24897;SDS011;12957;49.434;8.684;2023-11-19T06:21:11;4.97;;;3.70;;
24897;SDS011;12957;49.434;8.684;2023-11-19T06:23:37;8.15;;;3.72;;
24897;SDS011;12957;49.434;8.684;2023-11-19T06:26:03;5.07;;;3.60;;
24897;SDS011;12957;49.434;8.684;2023-11-19T06:28:30;5.63;;;3.55;;
24897;SDS011;12957;49.434;8.684;2023-11-19T06:30:55;3.90;;;3.08;;
24897;SDS011;12957;49.434;8.684;2023-11-19T06:33:22;3.42;;;3.13;;
24897;SDS011;12957;49.434;8.684;2023-11-19T06:35:48;4.30;;;2.95;;
24897;SDS011;12957;49.434;8.684;2023-11-19T06:38:14;6.18;;;3.10;;
24897;SDS011;12957;49.434;8.684;2023-11-19T06:40:40;9.13;;;3.20;;
24897;SDS011;12957;49.434;8.684;2023-11-19T06:43:06;3.75;;;3.08;;
24897;SDS011;12957;49.434;8.684;2023-11-19T06:45:33;3.08;;;2.78;;
24897;SDS011;12957;49.434;8.684;2023-11-19T06:48:02;5.35;;;3.10;;
24897;SDS011;12957;49.434;8.684;2023-11-19T06:50:31;3.38;;;2.72;;
24897;SDS011;12957;49.434;8.684;2023-11-19T06:52:56;4.47;;;2.55;;
24897;SDS011;12957;49.434;8.684;2023-11-19T06:55:22;2.72;;;2.50;;
24897;SDS011;12957;49.434;8.684;2023-11-19T06:57:47;2.60;;;2.10;;
24897;SDS011;12957;49.434;8.684;2023-11-19T07:00:13;2.25;;;2.03;;
24897;SDS011;12957;49.434;8.684;2023-11-19T07:02:38;1.98;;;1.88;;
24897;SDS011;12957;49.434;8.684;2023-11-19T07:05:04;4.57;;;1.83;;
24897;SDS011;12957;49.434;8.684;2023-11-19T07:07:33;2.15;;;2.03;;
24897;SDS011;12957;49.434;8.684;2023-11-19T07:10:00;6.20;;;2.17;;
24897;SDS011;12957;49.434;8.684;2023-11-19T07:12:27;1.98;;;1.88;;
24897;SDS011;12957;49.434;8.684;2023-11-19T07:14:52;1.95;;;1.85;;
24897;SDS011;12957;49.434;8.684;2023-11-19T07:17:18;2.97;;;1.83;;
24897;SDS011;12957;49.434;8.684;2023-11-19T07:19:45;2.58;;;1.83;;
24897;SDS011;12957;49.434;8.684;2023-11-19T07:22:11;2.03;;;1.60;;
24897;SDS011;12957;49.434;8.684;2023-11-19T07:24:38;4.00;;;1.80;;
24897;SDS011;12957;49.434;8.684;2023-11-19T07:27:04;3.28;;;1.83;;
24897;SDS011;12957;49.434;8.684;2023-11-19T07:29:29;4.88;;;1.65;;
24897;SDS011;12957;49.434;8.684;2023-11-19T07:31:56;3.40;;;1.90;;
24897;SDS011;12957;49.434;8.684;2023-11-19T07:34:22;1.45;;;1.35;;
24897;SDS011;12957;49.434;8.684;2023-11-19T07:36:47;4.25;;;1.60;;
24897;SDS011;12957;49.434;8.684;2023-11-19T07:39:13;3.28;;;1.50;;
24897;SDS011;12957;49.434;8.684;2023-11-19T07:41:38;2.47;;;1.50;;
24897;SDS011;12957;49.434;8.684;2023-11-19T07:44:04;3.88;;;1.58;;
24897;SDS011;12957;49.434;8.684;2023-11-19T07:46:29;2.13;;;1.58;;
24897;SDS011;12957;49.434;8.684;2023-11-19T07:48:55;2.40;;;1.40;;
24897;SDS011;12957;49.434;8.684;2023-11-19T07:51:20;1.55;;;1.45;;
24897;SDS011;12957;49.434;8.684;2023-11-19T07:53:46;2.92;;;1.33;;
24897;SDS011;12957;49.434;8.684;2023-11-19T07:56:12;3.75;;;2.20;;
24897;SDS011;12957;49.434;8.684;2023-11-19T07:58:37;3.30;;;2.83;;
24897;SDS011;12957;49.434;8.684;2023-11-19T08:01:06;1.60;;;1.40;;
24897;SDS011;12957;49.434;8.684;2023-11-19T08:03:32;1.90;;;1.63;;
24897;SDS011;12957;49.434;8.684;2023-11-19T08:05:59;2.17;;;1.60;;
24897;SDS011;12957;49.434;8.684;2023-11-19T08:08:25;2.20;;;2.10;;
24897;SDS011;12957;49.434;8.684;2023-11-19T08:10:50;6.43;;;2.45;;
24897;SDS011;12957;49.434;8.684;2023-11-19T08:13:17;4.82;;;3.72;;
24897;SDS011;12957;49.434;8.684;2023-11-19T08:15:43;6.03;;;4.72;;
24897;SDS011;12957;49.434;8.684;2023-11-19T08:18:08;5.63;;;3.28;;
24897;SDS011;12957;49.434;8.684;2023-11-19T08:20:34;8.00;;;4.72;;
24897;SDS011;12957;49.434;8.684;2023-11-19T08:22:59;3.83;;;2.30;;
24897;SDS011;12957;49.434;8.684;2023-11-19T08:25:27;3.72;;;2.53;;
24897;SDS011;12957;49.434;8.684;2023-11-19T08:27:53;3.20;;;2.90;;
24897;SDS011;12957;49.434;8.684;2023-11-19T08:30:19;2.67;;;2.47;;
24897;SDS011;12957;49.434;8.684;2023-11-19T08:32:45;2.30;;;1.92;;
24897;SDS011;12957;49.434;8.684;2023-11-19T08:35:10;2.03;;;1.92;;
24897;SDS011;12957;49.434;8.684;2023-11-19T08:37:36;3.53;;;1.70;;
24897;SDS011;12957;49.434;8.684;2023-11-19T08:40:02;2.95;;;1.50;;
24897;SDS011;12957;49.434;8.684;2023-11-19T08:42:29;2.65;;;1.70;;
24897;SDS011;12957;49.434;8.684;2023-11-19T08:44:55;1.98;;;1.80;;
24897;SDS011;12957;49.434;8.684;2023-11-19T08:47:20;2.42;;;1.67;;
24897;SDS011;12957;49.434;8.684;2023-11-19T08:49:47;3.05;;;1.83;;
24897;SDS011;12957;49.434;8.684;2023-11-19T08:52:13;4.30;;;1.90;;
24897;SDS011;12957;49.434;8.684;2023-11-19T08:54:42;2.65;;;1.60;;
24897;SDS011;12957;49.434;8.684;2023-11-19T08:57:07;1.90;;;1.77;;
24897;SDS011;12957;49.434;8.684;2023-11-19T08:59:34;6.70;;;1.65;;
24897;SDS011;12957;49.434;8.684;2023-11-19T09:01:59;4.20;;;1.63;;
24897;SDS011;12957;49.434;8.684;2023-11-19T09:04:25;2.17;;;1.98;;
24897;SDS011;12957;49.434;8.684;2023-11-19T09:06:50;1.75;;;1.30;;
24897;SDS011;12957;49.434;8.684;2023-11-19T09:09:16;3.10;;;1.50;;
24897;SDS011;12957;49.434;8.684;2023-11-19T09:11:41;1.75;;;1.65;;
24897;SDS011;12957;49.434;8.684;2023-11-19T09:14:07;2.35;;;1.50;;
24897;SDS011;12957;49.434;8.684;2023-11-19T09:16:33;3.38;;;2.03;;
24897;SDS011;12957;49.434;8.684;2023-11-19T09:18:58;6.43;;;1.73;;
24897;SDS011;12957;49.434;8.684;2023-11-19T09:21:25;4.43;;;1.80;;
24897;SDS011;12957;49.434;8.684;2023-11-19T09:23:51;1.80;;;1.70;;
24897;SDS011;12957;49.434;8.684;2023-11-19T09:26:18;2.65;;;1.70;;
24897;SDS011;12957;49.434;8.684;2023-11-19T09:28:43;4.03;;;1.90;;
24897;SDS011;12957;49.434;8.684;2023-11-19T09:31:15;3.42;;;1.90;;
24897;SDS011;12957;49.434;8.684;2023-11-19T09:33:41;3.97;;;1.75;;
24897;SDS011;12957;49.434;8.684;2023-11-19T09:36:06;1.63;;;1.52;;
24897;SDS011;12957;49.434;8.684;2023-11-19T09:38:32;3.95;;;1.88;;
24897;SDS011;12957;49.434;8.684;2023-11-19T09:40:58;5.30;;;1.77;;
24897;SDS011;12957;49.434;8.684;2023-11-19T09:43:25;3.20;;;1.50;;
24897;SDS011;12957;49.434;8.684;2023-11-19T09:45:53;1.95;;;1.42;;
24897;SDS011;12957;49.434;8.684;2023-11-19T09:48:20;1.60;;;1.50;;
24897;SDS011;12957;49.434;8.684;2023-11-19T09:50:46;1.42;;;1.20;;
24897;SDS011;12957;49.434;8.684;2023-11-19T09:53:12;1.35;;;1.25;;
24897;SDS011;12957;49.434;8.684;2023-11-19T09:55:38;1.95;;;1.67;;
24897;SDS011;12957;49.434;8.684;2023-11-19T09:58:05;1.50;;;1.40;;
24897;SDS011;12957;49.434;8.684;2023-11-19T10:00:30;3.10;;;1.85;;
24897;SDS011;12957;49.434;8.684;2023-11-19T10:02:56;1.92;;;1.60;;
24897;SDS011;12957;49.434;8.684;2023-11-19T10:05:22;4.25;;;1.73;;
24897;SDS011;12957;49.434;8.684;2023-11-19T10:07:49;4.93;;;1.58;;
24897;SDS011;12957;49.434;8.684;2023-11-19T10:10:14;2.08;;;1.40;;
24897;SDS011;12957;49.434;8.684;2023-11-19T10:12:43;1.42;;;1.30;;
24897;SDS011;12957;49.434;8.684;2023-11-19T10:15:17;4.53;;;1.50;;
24897;SDS011;12957;49.434;8.684;2023-11-19T10:17:46;6.05;;;1.67;;
24897;SDS011;12957;49.434;8.684;2023-11-19T10:20:12;2.40;;;1.30;;
24897;SDS011;12957;49.434;8.684;2023-11-19T10:22:37;2.08;;;1.63;;
24897;SDS011;12957;49.434;8.684;2023-11-19T10:25:03;5.03;;;1.50;;
24897;SDS011;12957;49.434;8.684;2023-11-19T10:27:29;3.50;;;1.40;;
24897;SDS011;12957;49.434;8.684;2023-11-19T10:29:58;4.13;;;1.38;;
24897;SDS011;12957;49.434;8.684;2023-11-19T10:32:24;3.45;;;1.30;;
24897;SDS011;12957;49.434;8.684;2023-11-19T10:34:50;6.57;;;1.70;;
24897;SDS011;12957;49.434;8.684;2023-11-19T10:37:28;4.88;;;1.67;;
24897;SDS011;12957;49.434;8.684;2023-11-19T10:39:57;2.50;;;1.45;;
24897;SDS011;12957;49.434;8.684;2023-11-19T10:42:23;1.50;;;1.38;;
24897;SDS011;12957;49.434;8.684;2023-11-19T10:44:48;5.28;;;1.70;;
24897;SDS011;12957;49.434;8.684;2023-11-19T10:47:14;4.15;;;1.60;;
24897;SDS011;12957;49.434;8.684;2023-11-19T10:49:43;3.90;;;1.35;;
24897;SDS011;12957;49.434;8.684;2023-11-19T10:52:10;2.00;;;1.30;;
24897;SDS011;12957;49.434;8.684;2023-11-19T10:54:37;2.97;;;1.13;;
24897;SDS011;12957;49.434;8.684;2023-11-19T10:57:05;3.80;;;1.40;;
24897;SDS011;12957;49.434;8.684;2023-11-19T10:59:32;3.88;;;1.65;;
24897;SDS011;12957;49.434;8.684;2023-11-19T11:01:58;2.25;;;1.38;;
24897;SDS011;12957;49.434;8.684;2023-11-19T11:04:25;3.28;;;1.30;;
24897;SDS011;12957;49.434;8.684;2023-11-19T11:06:53;1.55;;;1.40;;
24897;SDS011;12957;49.434;8.684;2023-11-19T11:09:19;4.97;;;1.90;;
24897;SDS011;12957;49.434;8.684;2023-11-19T11:11:46;1.73;;;1.60;;
24897;SDS011;12957;49.434;8.684;2023-11-19T11:14:12;1.90;;;1.40;;
24897;SDS011;12957;49.434;8.684;2023-11-19T11:16:42;1.92;;;1.52;;
24897;SDS011;12957;49.434;8.684;2023-11-19T11:19:08;6.60;;;2.20;;
24897;SDS011;12957;49.434;8.684;2023-11-19T11:21:34;2.15;;;1.70;;
24897;SDS011;12957;49.434;8.684;2023-11-19T11:24:06;3.80;;;1.20;;
24897;SDS011;12957;49.434;8.684;2023-11-19T11:29:37;2.88;;;1.30;;
24897;SDS011;12957;49.434;8.684;2023-11-19T11:39:49;4.80;;;1.10;;
24897;SDS011;12957;49.434;8.684;2023-11-19T11:50:21;1.10;;;1.00;;
24897;SDS011;12957;49.434;8.684;2023-11-19T11:57:50;3.92;;;1.17;;
24897;SDS011;12957;49.434;8.684;2023-11-19T12:00:22;5.90;;;1.08;;
24897;SDS011;12957;49.434;8.684;2023-11-19T12:02:48;2.08;;;1.27;;
24897;SDS011;12957;49.434;8.684;2023-11-19T12:05:13;6.15;;;1.23;;
24897;SDS011;12957;49.434;8.684;2023-11-19T12:07:39;7.13;;;1.15;;
24897;SDS011;12957;49.434;8.684;2023-11-19T12:10:08;1.10;;;1.08;;
24897;SDS011;12957;49.434;8.684;2023-11-19T12:12:37;0.90;;;0.90;;
24897;SDS011;12957;49.434;8.684;2023-11-19T12:15:06;2.50;;;1.02;;
24897;SDS011;12957;49.434;8.684;2023-11-19T12:20:09;2.63;;;1.10;;
24897;SDS011;12957;49.434;8.684;2023-11-19T12:22:37;1.67;;;0.90;;
24897;SDS011;12957;49.434;8.684;2023-11-19T12:25:04;2.65;;;1.30;;
24897;SDS011;12957;49.434;8.684;2023-11-19T12:27:31;3.83;;;1.20;;
24897;SDS011;12957;49.434;8.684;2023-11-19T12:29:58;4.20;;;1.20;;
24897;SDS011;12957;49.434;8.684;2023-11-19T12:32:24;2.75;;;1.05;;
24897;SDS011;12957;49.434;8.684;2023-11-19T12:34:50;2.53;;;1.20;;
24897;SDS011;12957;49.434;8.684;2023-11-19T12:37:15;2.00;;;1.20;;
24897;SDS011;12957;49.434;8.684;2023-11-19T12:39:41;3.53;;;1.20;;
24897;SDS011;12957;49.434;8.684;2023-11-19T12:42:06;3.13;;;1.13;;
24897;SDS011;12957;49.434;8.684;2023-11-19T12:44:32;9.68;;;1.15;;
24897;SDS011;12957;49.434;8.684;2023-11-19T12:47:08;1.75;;;1.00;;
24897;SDS011;12957;49.434;8.684;2023-11-19T12:49:36;2.05;;;1.10;;
24897;SDS011;12957;49.434;8.684;2023-11-19T12:52:02;4.47;;;1.10;;
24897;SDS011;12957;49.434;8.684;2023-11-19T12:54:32;1.45;;;1.20;;
24897;SDS011;12957;49.434;8.684;2023-11-19T12:56:58;3.42;;;1.40;;
24897;SDS011;12957;49.434;8.684;2023-11-19T12:59:24;3.22;;;1.33;;
24897;SDS011;12957;49.434;8.684;2023-11-19T13:01:54;1.55;;;1.13;;
24897;SDS011;12957;49.434;8.684;2023-11-19T13:04:22;10.65;;;1.63;;
24897;SDS011;12957;49.434;8.684;2023-11-19T13:06:49;2.30;;;1.13;;
24897;SDS011;12957;49.434;8.684;2023-11-19T13:09:21;3.13;;;1.20;;
24897;SDS011;12957;49.434;8.684;2023-11-19T13:11:49;4.25;;;1.60;;
24897;SDS011;12957;49.434;8.684;2023-11-19T13:14:14;3.58;;;1.45;;
24897;SDS011;12957;49.434;8.684;2023-11-19T13:16:40;3.47;;;1.33;;
24897;SDS011;12957;49.434;8.684;2023-11-19T13:19:05;6.60;;;1.30;;
24897;SDS011;12957;49.434;8.684;2023-11-19T13:21:31;3.63;;;1.00;;
24897;SDS011;12957;49.434;8.684;2023-11-19T13:23:56;6.32;;;1.58;;
24897;SDS011;12957;49.434;8.684;2023-11-19T13:26:22;3.22;;;0.90;;
24897;SDS011;12957;49.434;8.684;2023-11-19T13:28:48;3.33;;;1.00;;
24897;SDS011;12957;49.434;8.684;2023-11-19T13:31:14;3.22;;;1.10;;
24897;SDS011;12957;49.434;8.684;2023-11-19T13:33:39;6.18;;;1.30;;
24897;SDS011;12957;49.434;8.684;2023-11-19T13:36:05;1.63;;;1.10;;
24897;SDS011;12957;49.434;8.684;2023-11-19T13:38:32;6.88;;;1.15;;
24897;SDS011;12957;49.434;8.684;2023-11-19T13:40:58;1.48;;;1.13;;
24897;SDS011;12957;49.434;8.684;2023-11-19T13:43:24;1.17;;;0.90;;
24897;SDS011;12957;49.434;8.684;2023-11-19T13:45:50;3.13;;;1.10;;
24897;SDS011;12957;49.434;8.684;2023-11-19T13:48:16;6.03;;;1.00;;
24897;SDS011;12957;49.434;8.684;2023-11-19T13:50:41;2.45;;;1.23;;
24897;SDS011;12957;49.434;8.684;2023-11-19T13:53:07;4.20;;;1.13;;
24897;SDS011;12957;49.434;8.684;2023-11-19T13:55:33;2.47;;;1.00;;
24897;SDS011;12957;49.434;8.684;2023-11-19T13:57:58;2.65;;;1.50;;
24897;SDS011;12957;49.434;8.684;2023-11-19T14:00:23;2.22;;;1.15;;
24897;SDS011;12957;49.434;8.684;2023-11-19T14:02:49;1.92;;;1.20;;
24897;SDS011;12957;49.434;8.684;2023-11-19T14:05:15;4.95;;;1.05;;
24897;SDS011;12957;49.434;8.684;2023-11-19T14:07:42;3.30;;;1.00;;
24897;SDS011;12957;49.434;8.684;2023-11-19T14:10:08;5.35;;;1.23;;
24897;SDS011;12957;49.434;8.684;2023-11-19T14:12:36;8.40;;;1.38;;
24897;SDS011;12957;49.434;8.684;2023-11-19T14:15:02;1.83;;;1.10;;
24897;SDS011;12957;49.434;8.684;2023-11-19T14:17:31;7.03;;;1.27;;
24897;SDS011;12957;49.434;8.684;2023-11-19T14:19:57;1.40;;;0.90;;
24897;SDS011;12957;49.434;8.684;2023-11-19T14:22:23;4.78;;;1.38;;
24897;SDS011;12957;49.434;8.684;2023-11-19T14:24:49;1.35;;;0.90;;
24897;SDS011;12957;49.434;8.684;2023-11-19T14:27:15;3.38;;;1.38;;
24897;SDS011;12957;49.434;8.684;2023-11-19T14:29:42;2.60;;;1.20;;
24897;SDS011;12957;49.434;8.684;2023-11-19T14:32:08;3.05;;;1.00;;
24897;SDS011;12957;49.434;8.684;2023-11-19T14:34:33;2.53;;;1.08;;
24897;SDS011;12957;49.434;8.684;2023-11-19T14:36:59;5.35;;;1.00;;
24897;SDS011;12957;49.434;8.684;2023-11-19T14:39:25;2.60;;;1.13;;
24897;SDS011;12957;49.434;8.684;2023-11-19T14:41:51;4.65;;;1.27;;
24897;SDS011;12957;49.434;8.684;2023-11-19T14:44:17;1.77;;;0.90;;
24897;SDS011;12957;49.434;8.684;2023-11-19T14:46:45;6.10;;;1.30;;
24897;SDS011;12957;49.434;8.684;2023-11-19T14:49:10;1.17;;;1.00;;
24897;SDS011;12957;49.434;8.684;2023-11-19T14:51:39;4.97;;;1.30;;
24897;SDS011;12957;49.434;8.684;2023-11-19T14:54:05;4.38;;;1.20;;
24897;SDS011;12957;49.434;8.684;2023-11-19T14:56:30;3.67;;;1.50;;
24897;SDS011;12957;49.434;8.684;2023-11-19T14:58:56;3.72;;;1.27;;
24897;SDS011;12957;49.434;8.684;2023-11-19T15:01:22;3.97;;;1.48;;
24897;SDS011;12957;49.434;8.684;2023-11-19T15:03:47;4.55;;;1.58;;
24897;SDS011;12957;49.434;8.684;2023-11-19T15:06:12;3.00;;;1.25;;
24897;SDS011;12957;49.434;8.684;2023-11-19T15:08:38;3.55;;;1.50;;